createdAt,value
2022-08-09T00:00:01.000Z,23.90
2022-08-09T00:02:32.705Z,23.80
2022-08-09T00:06:11.076Z,23.80
2022-08-09T00:07:47.722Z,23.70
2022-08-09T00:10:20.988Z,23.70
2022-08-09T00:12:51.699Z,23.60
2022-08-09T00:15:26.731Z,23.60
2022-08-09T00:18:11.132Z,23.50
2022-08-09T00:20:42.626Z,23.50
2022-08-09T00:23:55.927Z,23.50
2022-08-09T00:26:05.785Z,23.40
2022-08-09T00:28:34.722Z,23.40
2022-08-09T00:31:50.397Z,23.40
2022-08-09T00:33:51.973Z,23.30
2022-08-09T00:36:20.275Z,23.30
2022-08-09T00:38:50.728Z,23.30
2022-08-09T00:44:09.869Z,23.20
2022-08-09T00:44:20.173Z,23.20
2022-08-09T00:47:04.718Z,23.10
2022-08-09T00:49:32.984Z,23.10
2022-08-09T00:52:02.070Z,23.10
2022-08-09T00:54:35.862Z,23.10
2022-08-09T00:57:10.122Z,23.10
2022-08-09T00:59:47.208Z,23.10
2022-08-09T01:02:23.190Z,23.00
2022-08-09T01:05:14.219Z,23.00
2022-08-09T01:08:01.783Z,22.90
2022-08-09T01:10:41.540Z,22.90
2022-08-09T01:13:22.394Z,22.90
2022-08-09T01:15:52.923Z,22.80
2022-08-09T01:18:30.223Z,22.80
2022-08-09T01:20:57.994Z,22.70
2022-08-09T01:24:01.699Z,22.70
2022-08-09T01:26:56.135Z,22.70
2022-08-09T01:29:55.107Z,22.60
2022-08-09T01:32:45.936Z,22.60
2022-08-09T01:35:37.862Z,22.50
2022-08-09T01:38:15.395Z,22.50
2022-08-09T01:40:52.996Z,22.40
2022-08-09T01:43:50.290Z,22.40
2022-08-09T01:46:26.987Z,22.30
2022-08-09T01:49:00.296Z,22.30
2022-08-09T01:51:39.199Z,22.30
2022-08-09T01:54:10.816Z,22.20
2022-08-09T01:56:40.607Z,22.20
2022-08-09T01:59:11.158Z,22.20
2022-08-09T02:01:59.087Z,22.10
2022-08-09T02:04:31.603Z,22.10
2022-08-09T02:07:18.384Z,22.10
2022-08-09T02:10:06.848Z,22.00
2022-08-09T02:12:35.418Z,22.00
2022-08-09T02:15:06.310Z,22.00
2022-08-09T02:18:01.138Z,21.90
2022-08-09T02:20:32.543Z,21.90
2022-08-09T02:23:08.969Z,21.90
2022-08-09T02:25:42.707Z,21.80
2022-08-09T02:28:21.377Z,21.80
2022-08-09T02:30:58.177Z,21.80
2022-08-09T02:33:58.298Z,21.70
2022-08-09T02:36:18.392Z,21.70
2022-08-09T02:38:52.767Z,21.70
2022-08-09T02:41:34.774Z,21.60
2022-08-09T02:44:13.811Z,21.60
2022-08-09T02:46:58.118Z,21.60
2022-08-09T02:49:27.248Z,21.60
2022-08-09T02:52:07.822Z,21.60
2022-08-09T02:54:36.764Z,21.50
2022-08-09T02:57:24.979Z,21.40
2022-08-09T03:00:21.388Z,21.40
2022-08-09T03:02:58.411Z,21.40
2022-08-09T03:05:27.999Z,21.40
2022-08-09T03:07:55.851Z,21.30
2022-08-09T03:10:24.900Z,21.30
2022-08-09T03:12:53.142Z,21.30
2022-08-09T03:15:22.898Z,21.30
2022-08-09T03:17:53.806Z,21.30
2022-08-09T03:20:26.305Z,21.30
2022-08-09T03:22:58.440Z,21.20
2022-08-09T03:25:58.133Z,21.20
2022-08-09T03:28:30.474Z,21.10
2022-08-09T03:30:57.999Z,21.10
2022-08-09T03:33:26.689Z,21.10
2022-08-09T03:36:16.229Z,21.10
2022-08-09T03:38:44.760Z,21.00
2022-08-09T03:41:16.712Z,21.00
2022-08-09T03:43:51.778Z,21.00
2022-08-09T03:46:34.279Z,21.00
2022-08-09T03:49:03.677Z,20.90
2022-08-09T03:51:56.331Z,20.90
2022-08-09T03:54:19.489Z,20.90
2022-08-09T03:56:58.177Z,20.90
2022-08-09T03:59:32.963Z,20.90
2022-08-09T04:02:12.619Z,20.90
2022-08-09T04:04:45.581Z,20.80
2022-08-09T04:07:13.187Z,20.70
2022-08-09T04:09:47.883Z,20.80
2022-08-09T04:12:37.374Z,20.70
2022-08-09T04:15:11.549Z,20.70
2022-08-09T04:17:44.702Z,20.70
2022-08-09T04:20:15.515Z,20.70
2022-08-09T04:22:44.343Z,20.70
2022-08-09T04:25:12.921Z,20.60
2022-08-09T04:27:42.883Z,20.60
2022-08-09T04:30:18.023Z,20.60
2022-08-09T04:32:47.807Z,20.50
2022-08-09T04:35:15.335Z,20.60
2022-08-09T04:37:46.182Z,20.60
2022-08-09T04:40:28.517Z,20.50
2022-08-09T04:43:01.248Z,20.50
2022-08-09T04:45:30.587Z,20.50
2022-08-09T04:48:02.120Z,20.50
2022-08-09T04:50:34.992Z,20.50
2022-08-09T04:53:13.503Z,20.50
2022-08-09T04:55:58.281Z,20.50
2022-08-09T04:58:27.101Z,20.50
2022-08-09T05:00:54.523Z,20.50
2022-08-09T05:03:42.901Z,20.50
2022-08-09T05:06:10.059Z,20.50
2022-08-09T05:08:38.341Z,20.50
2022-08-09T05:11:06.946Z,20.50
2022-08-09T05:13:38.762Z,20.60
2022-08-09T05:16:10.099Z,20.60
2022-08-09T05:18:57.214Z,20.60
2022-08-09T05:21:29.997Z,20.60
2022-08-09T05:24:01.337Z,20.70
2022-08-09T05:26:36.890Z,20.70
2022-08-09T05:29:17.597Z,20.70
2022-08-09T05:31:50.459Z,20.80
2022-08-09T05:34:30.173Z,20.80
2022-08-09T05:36:58.455Z,20.90
2022-08-09T05:39:35.738Z,21.00
2022-08-09T05:42:04.647Z,21.00
2022-08-09T05:44:34.975Z,21.10
2022-08-09T05:47:05.589Z,21.20
2022-08-09T05:50:24.283Z,21.20
2022-08-09T05:52:20.046Z,21.30
2022-08-09T05:54:49.107Z,21.30
2022-08-09T05:57:17.465Z,21.40
2022-08-09T05:59:46.215Z,21.40
2022-08-09T06:02:17.027Z,21.50
2022-08-09T06:04:46.069Z,21.60
2022-08-09T06:07:21.300Z,21.60
2022-08-09T06:10:01.735Z,21.60
2022-08-09T06:12:30.030Z,21.70
2022-08-09T06:15:01.139Z,21.80
2022-08-09T06:17:39.860Z,21.90
2022-08-09T06:20:07.993Z,21.90
2022-08-09T06:22:35.380Z,22.00
2022-08-09T06:25:02.921Z,22.00
2022-08-09T06:27:43.138Z,22.10
2022-08-09T06:30:16.976Z,22.10
2022-08-09T06:32:59.712Z,22.20
2022-08-09T06:35:35.882Z,22.20
2022-08-09T06:38:15.830Z,22.30
2022-08-09T06:40:43.146Z,22.40
2022-08-09T06:43:10.308Z,22.40
2022-08-09T06:46:07.003Z,22.50
2022-08-09T06:48:26.040Z,22.50
2022-08-09T06:50:57.018Z,22.60
2022-08-09T06:53:25.200Z,22.60
2022-08-09T06:55:53.211Z,22.70
2022-08-09T07:00:46.445Z,22.70
2022-08-09T07:01:07.852Z,22.80
2022-08-09T07:03:39.722Z,22.90
2022-08-09T07:06:19.593Z,22.90
2022-08-09T07:08:46.856Z,23.00
2022-08-09T07:11:17.665Z,23.00
2022-08-09T07:14:04.930Z,22.90
2022-08-09T07:16:42.708Z,23.20
2022-08-09T07:19:18.749Z,23.30
2022-08-09T07:21:57.259Z,23.40
2022-08-09T07:24:32.711Z,23.50
2022-08-09T07:27:21.061Z,23.50
2022-08-09T07:29:58.407Z,23.60
2022-08-09T07:32:33.223Z,23.70
2022-08-09T07:35:10.189Z,23.70
2022-08-09T07:37:43.236Z,23.70
2022-08-09T07:40:17.674Z,23.80
2022-08-09T07:43:16.822Z,23.80
2022-08-09T07:45:43.769Z,23.90
2022-08-09T07:48:25.481Z,24.00
2022-08-09T07:51:09.370Z,24.00
2022-08-09T07:54:04.143Z,24.10
2022-08-09T07:56:33.736Z,24.20
2022-08-09T07:59:00.685Z,24.30
2022-08-09T08:01:34.078Z,24.30
2022-08-09T08:04:02.541Z,24.40
2022-08-09T08:06:31.878Z,24.50
2022-08-09T08:09:05.104Z,24.60
2022-08-09T08:12:09.369Z,24.60
2022-08-09T08:14:24.271Z,24.60
2022-08-09T08:17:00.926Z,24.70
2022-08-09T08:19:35.027Z,24.70
2022-08-09T08:22:02.313Z,24.80
2022-08-09T08:24:35.270Z,24.90
2022-08-09T08:27:16.911Z,24.90
2022-08-09T08:29:50.094Z,25.00
2022-08-09T08:32:28.790Z,25.10
2022-08-09T08:34:58.516Z,25.20
2022-08-09T08:37:41.095Z,25.20
2022-08-09T08:40:14.329Z,25.30
2022-08-09T08:42:43.270Z,25.40
2022-08-09T08:45:16.663Z,25.50
2022-08-09T08:47:46.091Z,25.50
2022-08-09T08:50:18.302Z,25.50
2022-08-09T08:52:58.378Z,25.60
2022-08-09T08:55:27.955Z,25.70
2022-08-09T08:57:58.548Z,25.70
2022-08-09T09:00:34.654Z,25.80
2022-08-09T09:03:11.695Z,25.80
2022-08-09T09:06:00.875Z,25.90
2022-08-09T09:08:30.296Z,26.00
2022-08-09T09:11:01.552Z,26.00
2022-08-09T09:13:42.139Z,26.10
2022-08-09T09:16:16.106Z,26.20
2022-08-09T09:18:48.062Z,26.20
2022-08-09T09:21:26.043Z,26.20
2022-08-09T09:23:58.103Z,26.30
2022-08-09T09:26:31.690Z,26.40
2022-08-09T09:29:11.174Z,26.40
2022-08-09T09:32:06.561Z,26.50
2022-08-09T09:34:38.035Z,26.50
2022-08-09T09:37:06.684Z,26.60
2022-08-09T09:39:56.891Z,26.60
2022-08-09T09:42:27.689Z,26.70
2022-08-09T09:45:03.265Z,26.80
2022-08-09T09:47:32.927Z,26.80
2022-08-09T09:50:16.834Z,26.90
2022-08-09T09:52:56.362Z,27.00
2022-08-09T09:55:32.573Z,27.00
2022-08-09T09:58:17.376Z,27.10
2022-08-09T10:00:55.182Z,27.20
2022-08-09T10:03:39.686Z,27.20
2022-08-09T10:06:06.875Z,27.30
2022-08-09T10:08:43.199Z,27.40
2022-08-09T10:12:00.307Z,27.50
2022-08-09T10:14:33.005Z,27.60
2022-08-09T10:17:40.721Z,27.60
2022-08-09T10:19:59.142Z,27.60
2022-08-09T10:22:35.428Z,27.70
2022-08-09T10:25:11.778Z,27.70
2022-08-09T10:27:56.671Z,27.80
2022-08-09T10:34:04.229Z,27.90
2022-08-09T10:36:01.220Z,28.00
2022-08-09T10:38:54.895Z,28.10
2022-08-09T10:41:18.662Z,28.30
2022-08-09T10:43:58.660Z,28.40
2022-08-09T10:46:54.512Z,28.40
2022-08-09T10:49:49.767Z,28.50
2022-08-09T10:52:28.013Z,28.50
2022-08-09T10:54:55.809Z,28.70
2022-08-09T10:57:34.237Z,28.70
2022-08-09T11:00:35.190Z,28.80
2022-08-09T11:03:19.131Z,28.90
2022-08-09T11:06:15.253Z,29.00
2022-08-09T11:08:47.524Z,29.10
2022-08-09T11:11:17.628Z,29.20
2022-08-09T11:13:50.874Z,29.30
2022-08-09T11:16:37.310Z,29.50
2022-08-09T11:19:08.057Z,29.60
2022-08-09T11:21:57.358Z,29.70
2022-08-09T11:25:03.421Z,29.70
2022-08-09T11:28:05.121Z,29.90
2022-08-09T11:30:32.634Z,30.10
2022-08-09T11:33:19.127Z,30.20
2022-08-09T11:35:50.218Z,30.30
2022-08-09T11:38:33.936Z,30.30
2022-08-09T11:41:13.311Z,30.30
2022-08-09T11:43:43.197Z,30.50
2022-08-09T11:46:10.598Z,30.60
2022-08-09T11:48:52.313Z,30.70
2022-08-09T11:53:02.536Z,30.80
2022-08-09T11:54:27.754Z,30.90
2022-08-09T11:58:02.489Z,31.10
2022-08-09T12:00:33.977Z,31.20
2022-08-09T12:03:31.772Z,31.30
2022-08-09T12:05:51.237Z,31.40
2022-08-09T12:08:21.628Z,31.50
2022-08-09T12:10:53.644Z,31.60
2022-08-09T12:14:09.600Z,31.80
2022-08-09T12:16:38.453Z,31.90
2022-08-09T12:19:09.308Z,32.00
2022-08-09T12:21:39.241Z,32.00
2022-08-09T12:24:24.597Z,32.10
2022-08-09T12:29:13.892Z,32.30
2022-08-09T12:29:58.683Z,32.40
2022-08-09T12:32:31.676Z,32.50
2022-08-09T12:35:03.028Z,32.60
2022-08-09T12:37:49.790Z,32.70
2022-08-09T12:40:18.880Z,32.70
2022-08-09T12:42:46.507Z,32.60
2022-08-09T12:45:34.507Z,32.70
2022-08-09T12:48:31.100Z,32.80
2022-08-09T12:50:59.348Z,32.80
2022-08-09T12:53:35.255Z,33.00
2022-08-09T12:56:39.881Z,33.10
2022-08-09T12:59:13.976Z,33.30
2022-08-09T13:01:49.147Z,33.40
2022-08-09T13:04:35.788Z,33.40
2022-08-09T13:07:19.658Z,33.40
2022-08-09T13:10:05.723Z,33.70
2022-08-09T13:12:32.940Z,33.70
2022-08-09T13:15:08.416Z,33.90
2022-08-09T13:17:58.628Z,34.00
2022-08-09T13:20:37.871Z,34.10
2022-08-09T13:24:17.427Z,34.20
2022-08-09T13:26:39.069Z,34.10
2022-08-09T13:29:08.789Z,34.10
2022-08-09T13:32:18.068Z,34.10
2022-08-09T13:34:45.197Z,34.10
2022-08-09T13:37:15.008Z,34.00
2022-08-09T13:41:50.418Z,34.10
2022-08-09T13:42:50.255Z,34.30
2022-08-09T13:45:18.029Z,34.40
2022-08-09T13:47:49.575Z,34.50
2022-08-09T13:50:31.315Z,34.50
2022-08-09T13:52:58.855Z,34.40
2022-08-09T13:55:28.748Z,34.50
2022-08-09T13:57:58.479Z,34.40
2022-08-09T14:00:29.147Z,34.50
2022-08-09T14:03:17.094Z,34.60
2022-08-09T14:05:58.426Z,34.50
2022-08-09T14:08:30.704Z,34.60
2022-08-09T14:10:59.639Z,34.80
2022-08-09T14:14:15.539Z,34.90
2022-08-09T14:16:17.404Z,34.90
2022-08-09T14:18:50.624Z,34.90
2022-08-09T14:21:22.553Z,34.90
2022-08-09T14:23:55.479Z,34.80
2022-08-09T14:26:31.463Z,34.80
2022-08-09T14:29:08.103Z,34.90
2022-08-09T14:31:53.960Z,35.10
2022-08-09T14:34:31.281Z,35.20
2022-08-09T14:37:06.733Z,35.30
2022-08-09T14:39:45.743Z,35.30
2022-08-09T14:42:30.357Z,35.20
2022-08-09T14:46:39.536Z,35.20
2022-08-09T14:48:00.373Z,35.20
2022-08-09T14:50:31.717Z,35.20
2022-08-09T14:53:01.186Z,35.00
2022-08-09T14:55:29.094Z,34.80
2022-08-09T14:57:59.577Z,34.60
2022-08-09T15:00:27.046Z,34.50
2022-08-09T15:02:58.267Z,34.50
2022-08-09T15:05:26.963Z,34.50
2022-08-09T15:07:56.633Z,34.50
2022-08-09T15:10:28.988Z,34.50
2022-08-09T15:12:59.063Z,34.60
2022-08-09T15:15:28.801Z,34.60
2022-08-09T15:17:56.366Z,34.60
2022-08-09T15:22:01.115Z,34.60
2022-08-09T15:24:02.954Z,34.70
2022-08-09T15:25:58.415Z,34.70
2022-08-09T15:28:28.524Z,34.80
2022-08-09T15:31:09.931Z,34.80
2022-08-09T15:34:16.277Z,34.70
2022-08-09T15:36:29.391Z,34.60
2022-08-09T15:39:00.579Z,34.60
2022-08-09T15:41:31.165Z,34.60
2022-08-09T15:43:58.864Z,34.70
2022-08-09T15:46:32.351Z,34.70
2022-08-09T15:49:20.707Z,34.60
2022-08-09T15:52:04.392Z,34.40
2022-08-09T15:54:44.664Z,34.30
2022-08-09T15:57:35.603Z,34.20
2022-08-09T16:00:25.798Z,34.10
2022-08-09T16:02:54.929Z,34.00
2022-08-09T16:05:47.841Z,34.00
2022-08-09T16:08:24.767Z,34.00
2022-08-09T16:11:02.302Z,34.10
2022-08-09T16:14:03.487Z,34.10
2022-08-09T16:16:18.547Z,33.90
2022-08-09T16:18:46.451Z,33.80
2022-08-09T16:21:17.514Z,33.80
2022-08-09T16:23:55.741Z,33.90
2022-08-09T16:26:35.601Z,33.90
2022-08-09T16:29:11.555Z,33.90
2022-08-09T16:32:20.020Z,33.90
2022-08-09T16:34:53.565Z,33.80
2022-08-09T16:37:20.173Z,33.80
2022-08-09T16:40:08.862Z,33.70
2022-08-09T16:42:36.167Z,33.60
2022-08-09T16:45:05.234Z,33.60
2022-08-09T16:48:38.091Z,33.60
2022-08-09T16:50:29.177Z,33.60
2022-08-09T16:52:57.897Z,33.50
2022-08-09T16:55:24.731Z,33.30
2022-08-09T16:58:10.249Z,33.40
2022-08-09T17:00:42.712Z,33.30
2022-08-09T17:03:21.019Z,33.10
2022-08-09T17:06:08.307Z,33.00
2022-08-09T17:08:58.926Z,32.70
2022-08-09T17:11:40.907Z,32.70
2022-08-09T17:14:25.606Z,32.60
2022-08-09T17:16:56.380Z,32.50
2022-08-09T17:19:27.877Z,32.40
2022-08-09T17:22:14.642Z,32.40
2022-08-09T17:24:47.473Z,32.30
2022-08-09T17:27:21.526Z,32.10
2022-08-09T17:29:48.425Z,32.00
2022-08-09T17:32:20.453Z,31.90
2022-08-09T17:35:03.903Z,31.80
2022-08-09T17:38:02.722Z,31.70
2022-08-09T17:40:27.055Z,31.60
2022-08-09T17:42:59.709Z,31.50
2022-08-09T17:46:01.695Z,31.50
2022-08-09T17:48:29.226Z,31.40
2022-08-09T17:51:08.818Z,31.30
2022-08-09T17:53:47.932Z,31.30
2022-08-09T17:56:21.368Z,31.20
2022-08-09T17:58:48.119Z,31.20
2022-08-09T18:01:22.745Z,31.10
2022-08-09T18:03:52.009Z,31.10
2022-08-09T18:06:32.483Z,31.10
2022-08-09T18:09:04.463Z,31.00
2022-08-09T18:11:46.997Z,30.90
2022-08-09T18:14:21.630Z,30.80
2022-08-09T18:16:49.678Z,30.70
2022-08-09T18:20:56.143Z,30.70
2022-08-09T18:22:05.494Z,30.70
2022-08-09T18:24:32.470Z,30.60
2022-08-09T18:27:01.119Z,30.60
2022-08-09T18:30:39.573Z,30.60
2022-08-09T18:32:19.090Z,30.60
2022-08-09T18:34:46.241Z,30.60
2022-08-09T18:37:48.830Z,30.60
2022-08-09T18:40:02.295Z,30.50
2022-08-09T18:42:29.697Z,30.50
2022-08-09T18:44:56.956Z,30.40
2022-08-09T18:47:27.599Z,30.40
2022-08-09T18:49:59.890Z,30.30
2022-08-09T18:52:35.292Z,30.30
2022-08-09T18:55:03.473Z,30.20
2022-08-09T18:57:43.113Z,30.20
2022-08-09T19:00:16.697Z,30.10
2022-08-09T19:02:51.208Z,30.00
2022-08-09T19:05:28.813Z,30.00
2022-08-09T19:08:10.595Z,29.90
2022-08-09T19:10:41.100Z,29.80
2022-08-09T19:13:20.665Z,29.80
2022-08-09T19:15:49.832Z,29.70
2022-08-09T19:18:33.384Z,29.60
2022-08-09T19:21:08.884Z,29.60
2022-08-09T19:24:33.078Z,29.50
2022-08-09T19:26:29.420Z,29.40
2022-08-09T19:29:01.631Z,29.40
2022-08-09T19:31:30.518Z,29.30
2022-08-09T19:33:58.068Z,29.20
2022-08-09T19:36:30.768Z,29.20
2022-08-09T19:39:01.228Z,29.10
2022-08-09T19:41:35.596Z,29.10
2022-08-09T19:44:03.581Z,29.00
2022-08-09T19:46:35.267Z,29.00
2022-08-09T19:50:05.109Z,28.90
2022-08-09T19:51:55.692Z,28.80
2022-08-09T19:54:27.259Z,28.80
2022-08-09T19:56:55.428Z,28.70
2022-08-09T19:59:57.329Z,28.60
2022-08-09T20:02:18.121Z,28.50
2022-08-09T20:04:59.188Z,28.40
2022-08-09T20:07:26.237Z,28.40
2022-08-09T20:10:17.637Z,28.30
2022-08-09T20:12:49.060Z,28.20
2022-08-09T20:16:33.304Z,28.20
2022-08-09T20:18:07.403Z,28.10
2022-08-09T20:20:35.718Z,28.10
2022-08-09T20:23:04.678Z,28.00
2022-08-09T20:25:49.544Z,28.00
2022-08-09T20:28:34.425Z,28.00
2022-08-09T20:31:11.058Z,28.00
2022-08-09T20:33:43.836Z,27.90
2022-08-09T20:36:11.568Z,27.90
2022-08-09T20:39:18.848Z,27.90
2022-08-09T20:41:35.123Z,27.80
2022-08-09T20:44:06.902Z,27.80
2022-08-09T20:46:43.253Z,27.70
2022-08-09T20:49:16.109Z,27.70
2022-08-09T20:51:44.156Z,27.60
2022-08-09T20:54:12.624Z,27.50
2022-08-09T20:56:46.970Z,27.50
2022-08-09T20:59:17.180Z,27.40
2022-08-09T21:01:50.303Z,27.40
2022-08-09T21:05:53.041Z,27.30
2022-08-09T21:07:11.360Z,27.20
2022-08-09T21:09:45.124Z,27.20
2022-08-09T21:14:48.233Z,27.00
2022-08-09T21:18:22.980Z,27.00
2022-08-09T21:20:18.007Z,27.00
2022-08-09T21:22:52.698Z,26.90
2022-08-09T21:25:43.730Z,26.80
2022-08-09T21:28:12.084Z,26.80
2022-08-09T21:30:42.908Z,26.70
2022-08-09T21:33:10.161Z,26.70
2022-08-09T21:35:39.458Z,26.60
2022-08-09T21:38:21.019Z,26.60
2022-08-09T21:40:57.774Z,26.50
2022-08-09T21:43:56.775Z,26.50
2022-08-09T21:46:11.332Z,26.50
2022-08-09T21:48:42.751Z,26.40
2022-08-09T21:51:18.106Z,26.40
2022-08-09T21:53:54.649Z,26.40
2022-08-09T21:56:43.314Z,26.40
2022-08-09T21:59:09.553Z,26.30
2022-08-09T22:01:58.568Z,26.30
2022-08-09T22:04:37.569Z,26.30
2022-08-09T22:07:10.379Z,26.20
2022-08-09T22:09:43.611Z,26.20
2022-08-09T22:12:18.644Z,26.20
2022-08-09T22:14:51.343Z,26.10
2022-08-09T22:17:18.204Z,26.10
2022-08-09T22:19:58.692Z,26.10
2022-08-09T22:22:27.510Z,26.00
2022-08-09T22:26:05.279Z,25.90
2022-08-09T22:27:41.169Z,25.90
2022-08-09T22:30:10.580Z,25.80
2022-08-09T22:32:37.813Z,25.80
2022-08-09T22:36:01.343Z,25.80
2022-08-09T22:38:07.216Z,25.70
2022-08-09T22:40:35.259Z,25.70
2022-08-09T22:43:16.174Z,25.60
2022-08-09T22:48:14.814Z,25.60
2022-08-09T22:48:36.947Z,25.50
2022-08-09T22:51:10.721Z,25.50
2022-08-09T22:54:02.509Z,25.40
2022-08-09T22:56:33.986Z,25.40
2022-08-09T22:59:06.037Z,25.40
2022-08-09T23:01:50.003Z,25.40
2022-08-09T23:04:17.302Z,25.50
2022-08-09T23:07:03.120Z,25.40
2022-08-09T23:09:37.780Z,25.40
2022-08-09T23:12:04.858Z,25.40
2022-08-09T23:14:42.432Z,25.40
2022-08-09T23:17:10.565Z,25.40
2022-08-09T23:20:06.567Z,25.30
2022-08-09T23:22:24.506Z,25.30
2022-08-09T23:24:51.511Z,25.20
2022-08-09T23:27:18.306Z,25.20
2022-08-09T23:29:45.907Z,25.20
2022-08-09T23:32:12.995Z,25.10
2022-08-09T23:34:40.018Z,25.10
2022-08-09T23:37:06.968Z,25.10
2022-08-09T23:39:34.036Z,25.00
2022-08-09T23:42:01.001Z,25.00
2022-08-09T23:44:27.992Z,25.00
2022-08-09T23:46:57.715Z,24.90
2022-08-09T23:49:25.625Z,24.90
2022-08-09T23:51:53.444Z,24.80
2022-08-09T23:54:20.994Z,24.80
2022-08-09T23:56:55.884Z,24.80
2022-08-09T23:59:24.669Z,24.70
